createdAt,value
2019-05-19T00:01:21.825Z,51.20
2019-05-19T00:03:51.061Z,50.27
2019-05-19T00:06:20.280Z,51.33
2019-05-19T00:08:49.572Z,49.40
2019-05-19T00:11:18.876Z,54.70
2019-05-19T00:13:48.059Z,51.30
2019-05-19T00:16:17.352Z,50.77
2019-05-19T00:18:46.602Z,49.50
2019-05-19T00:21:15.848Z,52.40
2019-05-19T00:23:45.053Z,53.53
2019-05-19T00:26:14.237Z,53.13
2019-05-19T00:28:43.545Z,52.97
2019-05-19T00:31:12.888Z,55.93
2019-05-19T00:33:42.145Z,53.23
2019-05-19T00:36:11.477Z,53.27
2019-05-19T00:38:40.662Z,52.10
2019-05-19T00:41:09.936Z,54.00
2019-05-19T00:43:39.139Z,54.30
2019-05-19T00:46:08.364Z,51.97
2019-05-19T00:48:37.524Z,54.57
2019-05-19T00:51:07.190Z,55.33
2019-05-19T00:53:36.512Z,55.33
2019-05-19T00:56:05.841Z,55.10
2019-05-19T00:58:35.757Z,56.87
2019-05-19T01:01:05.118Z,54.27
2019-05-19T01:03:34.484Z,52.67
2019-05-19T01:06:03.684Z,52.43
2019-05-19T01:08:32.937Z,53.27
2019-05-19T01:11:02.194Z,55.10
2019-05-19T01:13:31.523Z,53.47
2019-05-19T01:16:00.780Z,54.23
2019-05-19T01:18:30.057Z,53.23
2019-05-19T01:20:59.402Z,53.67
2019-05-19T01:23:28.714Z,56.83
2019-05-19T01:25:57.905Z,56.47
2019-05-19T01:28:27.221Z,54.67
2019-05-19T01:30:56.411Z,56.07
2019-05-19T01:33:25.566Z,56.73
2019-05-19T01:35:54.888Z,53.90
2019-05-19T01:38:24.055Z,58.87
2019-05-19T01:40:53.257Z,57.83
2019-05-19T01:43:22.514Z,58.47
2019-05-19T01:45:51.693Z,61.03
2019-05-19T01:48:21.186Z,55.70
2019-05-19T01:50:50.472Z,61.30
2019-05-19T01:53:19.678Z,56.67
2019-05-19T01:55:48.878Z,54.87
2019-05-19T01:58:18.173Z,58.97
2019-05-19T02:00:47.476Z,59.00
2019-05-19T02:03:16.675Z,57.97
2019-05-19T02:05:45.869Z,58.53
2019-05-19T02:08:15.182Z,58.83
2019-05-19T02:10:44.480Z,58.87
2019-05-19T02:13:13.789Z,61.30
2019-05-19T02:15:43.094Z,60.07
2019-05-19T02:18:12.289Z,59.13
2019-05-19T02:20:41.593Z,59.47
2019-05-19T02:23:10.855Z,60.10
2019-05-19T02:25:40.095Z,62.83
2019-05-19T02:28:09.402Z,62.10
2019-05-19T02:30:38.653Z,62.50
2019-05-19T02:33:07.867Z,60.43
2019-05-19T02:35:37.189Z,58.70
2019-05-19T02:38:06.374Z,61.70
2019-05-19T02:40:38.767Z,59.60
2019-05-19T02:43:08.744Z,63.23
2019-05-19T02:45:39.065Z,59.80
2019-05-19T02:48:09.900Z,61.50
2019-05-19T02:50:51.803Z,60.30
2019-05-19T02:53:10.972Z,63.33
2019-05-19T02:55:40.805Z,61.97
2019-05-19T02:58:11.953Z,60.90
2019-05-19T03:00:42.446Z,64.00
2019-05-19T03:03:11.665Z,61.70
2019-05-19T03:05:41.002Z,63.47
2019-05-19T03:08:10.263Z,59.07
2019-05-19T03:10:39.578Z,61.67
2019-05-19T03:13:08.908Z,62.23
2019-05-19T03:15:38.052Z,59.73
2019-05-19T03:18:07.376Z,60.87
2019-05-19T03:20:36.765Z,58.73
2019-05-19T03:23:06.014Z,64.10
2019-05-19T03:25:35.286Z,61.60
2019-05-19T03:28:04.513Z,61.03
2019-05-19T03:30:51.122Z,64.00
2019-05-19T03:33:22.950Z,60.80
2019-05-19T03:35:52.221Z,61.00
2019-05-19T03:38:21.521Z,60.90
2019-05-19T03:40:50.872Z,62.30
2019-05-19T03:43:20.138Z,61.07
2019-05-19T03:45:49.438Z,59.07
2019-05-19T03:48:18.867Z,62.33
2019-05-19T03:50:48.154Z,60.97
2019-05-19T03:53:17.446Z,61.00
2019-05-19T03:55:46.660Z,63.10
2019-05-19T03:58:15.833Z,61.10
2019-05-19T04:00:45.142Z,65.27
2019-05-19T04:03:14.461Z,65.13
2019-05-19T04:05:43.743Z,61.17
2019-05-19T04:08:13.104Z,67.67
2019-05-19T04:10:42.378Z,66.10
2019-05-19T04:13:11.645Z,62.10
2019-05-19T04:15:40.951Z,65.83
2019-05-19T04:18:10.314Z,64.13
2019-05-19T04:20:39.546Z,59.90
2019-05-19T04:23:08.737Z,65.47
2019-05-19T04:25:37.964Z,62.07
2019-05-19T04:28:07.244Z,64.43
2019-05-19T04:30:36.541Z,62.33
2019-05-19T04:33:05.848Z,63.53
2019-05-19T04:35:35.169Z,60.43
2019-05-19T04:38:04.456Z,64.63
2019-05-19T04:40:33.725Z,63.27
2019-05-19T04:43:03.039Z,60.07
2019-05-19T04:45:32.336Z,63.00
2019-05-19T04:48:01.662Z,64.00
2019-05-19T04:50:30.962Z,62.13
2019-05-19T04:53:00.319Z,62.27
2019-05-19T04:55:29.632Z,60.87
2019-05-19T04:57:58.828Z,60.80
2019-05-19T05:00:28.162Z,60.33
2019-05-19T05:02:57.451Z,63.50
2019-05-19T05:05:26.756Z,61.23
2019-05-19T05:07:56.041Z,62.20
2019-05-19T05:10:25.289Z,61.17
2019-05-19T05:12:54.572Z,64.00
2019-05-19T05:15:23.806Z,62.07
2019-05-19T05:17:53.072Z,61.17
2019-05-19T05:20:22.269Z,58.97
2019-05-19T05:22:51.548Z,63.53
2019-05-19T05:25:21.068Z,58.30
2019-05-19T05:27:50.407Z,60.50
2019-05-19T05:30:19.663Z,62.70
2019-05-19T05:32:48.981Z,64.70
2019-05-19T05:35:18.265Z,61.17
2019-05-19T05:37:47.449Z,59.60
2019-05-19T05:40:16.756Z,59.00
2019-05-19T05:42:46.047Z,63.53
2019-05-19T05:45:15.273Z,62.63
2019-05-19T05:47:44.521Z,61.17
2019-05-19T05:50:13.729Z,61.20
2019-05-19T05:52:43.055Z,59.07
2019-05-19T05:55:12.430Z,63.10
2019-05-19T05:57:41.777Z,63.50
2019-05-19T06:00:11.733Z,63.43
2019-05-19T06:02:40.981Z,60.70
2019-05-19T06:05:10.624Z,64.63
2019-05-19T06:07:39.785Z,62.47
2019-05-19T06:10:09.597Z,61.07
2019-05-19T06:12:38.844Z,60.37
2019-05-19T06:15:08.364Z,63.30
2019-05-19T06:17:37.616Z,59.37
2019-05-19T06:20:07.566Z,61.97
2019-05-19T06:22:37.247Z,61.13
2019-05-19T06:25:06.664Z,60.60
2019-05-19T06:27:35.933Z,61.60
2019-05-19T06:30:08.490Z,65.53
2019-05-19T06:32:48.661Z,67.17
2019-05-19T06:35:18.866Z,62.40
2019-05-19T06:37:48.181Z,63.47
2019-05-19T06:40:17.438Z,66.70
2019-05-19T06:42:46.688Z,61.80
2019-05-19T06:45:16.004Z,62.00
2019-05-19T06:47:45.281Z,67.47
2019-05-19T06:50:15.119Z,63.87
2019-05-19T06:52:44.337Z,66.43
2019-05-19T06:55:14.208Z,70.30
2019-05-19T06:57:43.536Z,71.80
2019-05-19T07:00:13.389Z,68.20
2019-05-19T07:02:42.653Z,65.50
2019-05-19T07:05:12.025Z,67.20
2019-05-19T07:07:41.401Z,67.00
2019-05-19T07:10:11.163Z,69.13
2019-05-19T07:12:40.456Z,69.33
2019-05-19T07:15:11.731Z,73.53
2019-05-19T07:17:40.963Z,71.80
2019-05-19T07:20:10.254Z,71.70
2019-05-19T07:22:39.542Z,71.50
2019-05-19T07:25:09.306Z,71.03
2019-05-19T07:27:38.601Z,71.83
2019-05-19T07:30:09.655Z,71.80
2019-05-19T07:32:39.404Z,72.50
2019-05-19T07:35:08.790Z,72.97
2019-05-19T07:37:38.236Z,73.40
2019-05-19T07:40:07.799Z,72.90
2019-05-19T07:42:37.138Z,70.47
2019-05-19T07:45:06.905Z,75.23
2019-05-19T07:47:36.298Z,74.60
2019-05-19T07:50:06.753Z,76.10
2019-05-19T07:52:36.075Z,73.90
2019-05-19T07:55:05.657Z,75.40
2019-05-19T07:57:34.933Z,80.23
2019-05-19T08:00:04.627Z,74.40
2019-05-19T08:02:33.950Z,73.67
2019-05-19T08:05:03.265Z,80.00
2019-05-19T08:07:32.540Z,76.43
2019-05-19T08:10:01.748Z,76.17
2019-05-19T08:12:30.935Z,72.83
2019-05-19T08:15:00.148Z,68.93
2019-05-19T08:17:29.425Z,67.13
2019-05-19T08:19:58.622Z,60.90
2019-05-19T08:22:27.813Z,66.87
2019-05-19T08:25:00.281Z,62.80
2019-05-19T08:27:29.644Z,63.83
2019-05-19T08:29:58.949Z,65.57
2019-05-19T08:32:29.312Z,64.57
2019-05-19T08:34:59.637Z,61.90
2019-05-19T08:37:28.961Z,61.53
2019-05-19T08:39:58.297Z,62.57
2019-05-19T08:42:27.579Z,59.87
2019-05-19T08:44:56.881Z,61.20
2019-05-19T08:47:26.120Z,63.43
2019-05-19T08:49:56.448Z,61.93
2019-05-19T08:52:25.895Z,61.63
2019-05-19T08:54:55.232Z,62.63
2019-05-19T08:57:24.631Z,63.80
2019-05-19T08:59:53.829Z,65.20
2019-05-19T09:02:23.099Z,61.37
2019-05-19T09:04:52.379Z,59.57
2019-05-19T09:07:21.677Z,56.97
2019-05-19T09:09:50.903Z,57.43
2019-05-19T09:12:20.274Z,58.17
2019-05-19T09:14:49.480Z,57.63
2019-05-19T09:17:18.768Z,55.63
2019-05-19T09:19:47.974Z,57.47
2019-05-19T09:22:17.417Z,53.80
2019-05-19T09:24:46.768Z,55.87
2019-05-19T09:27:15.997Z,54.17
2019-05-19T09:29:45.348Z,51.83
2019-05-19T09:32:14.653Z,56.13
2019-05-19T09:34:43.892Z,54.50
2019-05-19T09:37:13.486Z,57.23
2019-05-19T09:39:45.055Z,55.40
2019-05-19T09:42:14.328Z,52.63
2019-05-19T09:44:45.441Z,53.10
2019-05-19T09:47:14.705Z,49.63
2019-05-19T09:49:43.908Z,51.30
2019-05-19T09:52:17.008Z,55.17
2019-05-19T09:54:45.772Z,53.27
2019-05-19T09:57:15.626Z,53.27
2019-05-19T09:59:45.041Z,53.10
2019-05-19T10:02:14.304Z,50.93
2019-05-19T10:04:44.003Z,49.97
2019-05-19T10:07:13.442Z,48.67
2019-05-19T10:10:09.940Z,52.20
2019-05-19T10:12:40.937Z,50.33
2019-05-19T10:15:11.650Z,47.60
2019-05-19T10:17:41.161Z,53.73
2019-05-19T10:20:11.515Z,51.50
2019-05-19T10:22:41.006Z,49.70
2019-05-19T10:25:21.802Z,47.43
2019-05-19T10:27:42.359Z,50.77
2019-05-19T10:30:12.345Z,53.60
2019-05-19T10:32:41.674Z,51.57
2019-05-19T10:35:11.511Z,52.63
2019-05-19T10:37:41.333Z,53.23
2019-05-19T10:40:11.109Z,53.90
2019-05-19T10:42:41.010Z,52.73
2019-05-19T10:45:10.853Z,51.40
2019-05-19T10:47:40.516Z,52.90
2019-05-19T10:50:10.237Z,52.63
2019-05-19T10:52:39.692Z,48.50
2019-05-19T10:55:09.277Z,50.80
2019-05-19T10:57:38.753Z,50.90
2019-05-19T11:00:08.738Z,49.97
2019-05-19T11:02:41.265Z,49.83
2019-05-19T11:05:12.246Z,53.37
2019-05-19T11:07:41.685Z,51.13
2019-05-19T11:10:11.178Z,56.37
2019-05-19T11:12:40.712Z,56.67
2019-05-19T11:15:10.788Z,50.70
2019-05-19T11:17:40.154Z,52.83
2019-05-19T11:20:10.035Z,55.57
2019-05-19T11:22:39.709Z,53.17
2019-05-19T11:25:12.353Z,53.50
2019-05-19T11:27:42.314Z,53.37
2019-05-19T11:30:14.670Z,49.07
2019-05-19T11:32:45.703Z,49.10
2019-05-19T11:35:16.456Z,46.90
2019-05-19T11:37:45.848Z,45.10
2019-05-19T11:40:15.185Z,47.90
2019-05-19T11:42:46.929Z,48.00
2019-05-19T11:45:16.388Z,49.77
2019-05-19T11:47:46.575Z,47.03
2019-05-19T11:50:16.269Z,50.07
2019-05-19T11:52:46.018Z,54.17
2019-05-19T11:55:15.733Z,53.83
2019-05-19T11:57:45.457Z,56.23
2019-05-19T12:00:17.260Z,57.17
2019-05-19T12:02:46.859Z,54.93
2019-05-19T12:05:17.093Z,53.90
2019-05-19T12:07:46.914Z,56.10
2019-05-19T12:10:17.021Z,51.93
2019-05-19T12:12:46.648Z,51.07
2019-05-19T12:15:16.468Z,48.80
2019-05-19T12:17:46.881Z,48.97
2019-05-19T12:20:16.754Z,45.50
2019-05-19T12:22:46.845Z,48.30
2019-05-19T12:25:16.949Z,43.43
2019-05-19T12:27:58.457Z,43.50
2019-05-19T12:30:27.976Z,42.40
2019-05-19T12:32:59.311Z,41.23
2019-05-19T12:35:28.302Z,39.77
2019-05-19T12:37:59.344Z,34.47
2019-05-19T12:40:28.777Z,31.00
2019-05-19T12:42:58.229Z,31.80
2019-05-19T12:45:27.486Z,31.00
2019-05-19T12:47:58.093Z,31.37
2019-05-19T12:50:27.869Z,29.90
2019-05-19T12:52:58.045Z,28.13
2019-05-19T12:55:27.727Z,29.93
2019-05-19T12:57:59.872Z,29.73
2019-05-19T13:00:30.381Z,31.80
2019-05-19T13:03:01.297Z,29.57
2019-05-19T13:05:30.845Z,30.80
2019-05-19T13:08:00.559Z,32.40
2019-05-19T13:10:30.477Z,29.13
2019-05-19T13:12:59.901Z,30.27
2019-05-19T13:15:29.512Z,30.40
2019-05-19T13:17:58.936Z,32.13
2019-05-19T13:20:28.449Z,32.43
2019-05-19T13:22:57.921Z,35.43
2019-05-19T13:25:29.527Z,31.70
2019-05-19T13:28:01.837Z,32.43
2019-05-19T13:30:31.358Z,33.40
2019-05-19T13:33:00.761Z,31.53
2019-05-19T13:35:30.111Z,34.33
2019-05-19T13:38:01.495Z,32.93
2019-05-19T13:40:41.199Z,32.60
2019-05-19T13:43:08.463Z,34.10
2019-05-19T13:45:37.782Z,34.53
2019-05-19T13:48:07.204Z,35.00
2019-05-19T13:50:39.948Z,34.27
2019-05-19T13:53:09.407Z,35.80
2019-05-19T13:55:38.741Z,35.17
2019-05-19T13:58:08.209Z,33.60
2019-05-19T14:00:37.673Z,37.40
2019-05-19T14:03:07.410Z,35.77
2019-05-19T14:05:36.780Z,30.40
2019-05-19T14:08:06.231Z,32.60
2019-05-19T14:10:35.690Z,33.80
2019-05-19T14:13:05.214Z,36.67
2019-05-19T14:15:36.082Z,34.97
2019-05-19T14:18:05.630Z,38.50
2019-05-19T14:20:36.272Z,37.07
2019-05-19T14:23:05.775Z,38.80
2019-05-19T14:25:35.477Z,39.53
2019-05-19T14:28:05.224Z,37.17
2019-05-19T14:30:34.767Z,36.30
2019-05-19T14:33:06.229Z,38.43
2019-05-19T14:35:35.800Z,37.67
2019-05-19T14:38:05.180Z,37.07
2019-05-19T14:40:34.761Z,36.00
2019-05-19T14:43:04.668Z,38.93
2019-05-19T14:45:34.122Z,37.77
2019-05-19T14:48:03.509Z,40.30
2019-05-19T14:50:33.273Z,37.57
2019-05-19T14:53:04.616Z,35.50
2019-05-19T14:55:34.316Z,38.57
2019-05-19T14:58:04.212Z,36.57
2019-05-19T15:00:35.237Z,37.07
2019-05-19T15:03:05.716Z,37.27
2019-05-19T15:05:35.202Z,37.10
2019-05-19T15:08:04.688Z,36.20
2019-05-19T15:10:34.169Z,36.30
2019-05-19T15:13:03.744Z,36.30
2019-05-19T15:15:33.247Z,35.87
2019-05-19T15:18:03.177Z,35.20
2019-05-19T15:20:32.554Z,34.57
2019-05-19T15:23:01.967Z,34.90
2019-05-19T15:25:31.437Z,35.07
2019-05-19T15:28:04.538Z,35.27
2019-05-19T15:30:31.756Z,36.00
2019-05-19T15:33:02.787Z,33.40
2019-05-19T15:35:32.305Z,37.80
2019-05-19T15:38:01.972Z,37.57
2019-05-19T15:40:31.169Z,39.03
2019-05-19T15:43:00.490Z,36.17
2019-05-19T15:45:29.933Z,35.93
2019-05-19T15:47:59.215Z,34.50
2019-05-19T15:50:28.522Z,36.30
2019-05-19T15:52:57.908Z,34.53
2019-05-19T15:55:27.236Z,38.60
2019-05-19T15:57:56.560Z,36.33
2019-05-19T16:00:25.857Z,35.27
2019-05-19T16:02:56.360Z,34.77
2019-05-19T16:05:25.518Z,35.33
2019-05-19T16:07:57.309Z,35.47
2019-05-19T16:10:26.475Z,33.60
2019-05-19T16:12:55.831Z,33.10
2019-05-19T16:15:25.136Z,34.00
2019-05-19T16:17:55.063Z,34.70
2019-05-19T16:20:24.426Z,34.63
2019-05-19T16:22:53.720Z,35.10
2019-05-19T16:25:23.049Z,34.63
2019-05-19T16:27:53.110Z,34.40
2019-05-19T16:30:23.256Z,33.03
2019-05-19T16:32:54.705Z,33.73
2019-05-19T16:35:23.977Z,36.33
2019-05-19T16:37:58.182Z,39.13
2019-05-19T16:40:27.405Z,36.50
2019-05-19T16:43:27.273Z,37.17
2019-05-19T16:45:56.563Z,41.67
2019-05-19T16:48:25.822Z,38.77
2019-05-19T16:50:55.028Z,38.00
2019-05-19T16:53:24.341Z,39.10
2019-05-19T16:55:53.624Z,39.53
2019-05-19T16:58:23.001Z,38.10
2019-05-19T17:00:52.375Z,37.17
2019-05-19T17:03:21.644Z,36.13
2019-05-19T17:05:53.738Z,42.53
2019-05-19T17:08:23.247Z,43.20
2019-05-19T17:10:52.506Z,40.60
2019-05-19T17:13:21.865Z,40.70
2019-05-19T17:15:51.142Z,38.63
2019-05-19T17:18:20.448Z,42.13
2019-05-19T17:20:50.092Z,41.83
2019-05-19T17:23:19.401Z,40.73
2019-05-19T17:25:48.650Z,43.70
2019-05-19T17:28:17.928Z,42.13
2019-05-19T17:30:47.237Z,40.13
2019-05-19T17:33:16.410Z,42.80
2019-05-19T17:35:45.799Z,44.17
2019-05-19T17:38:15.137Z,46.53
2019-05-19T17:40:44.350Z,43.80
2019-05-19T17:43:13.546Z,44.30
2019-05-19T17:45:42.686Z,46.37
2019-05-19T17:48:25.618Z,47.33
2019-05-19T17:50:43.040Z,45.07
2019-05-19T17:53:12.378Z,51.20
2019-05-19T17:55:42.891Z,49.00
2019-05-19T17:58:12.188Z,47.90
2019-05-19T18:00:43.321Z,47.37
2019-05-19T18:03:13.168Z,48.40
2019-05-19T18:05:42.397Z,46.27
2019-05-19T18:08:11.672Z,48.80
2019-05-19T18:10:40.954Z,46.63
2019-05-19T18:13:10.133Z,45.77
2019-05-19T18:15:39.395Z,44.43
2019-05-19T18:18:08.733Z,45.47
2019-05-19T18:20:37.933Z,48.73
2019-05-19T18:23:07.273Z,48.20
2019-05-19T18:25:36.571Z,47.80
2019-05-19T18:28:05.865Z,46.93
2019-05-19T18:30:35.040Z,49.53
2019-05-19T18:33:04.289Z,51.67
2019-05-19T18:35:33.538Z,51.40
2019-05-19T18:38:02.927Z,51.50
2019-05-19T18:40:32.290Z,55.13
2019-05-19T18:43:01.753Z,51.07
2019-05-19T18:45:31.004Z,50.80
2019-05-19T18:48:00.303Z,51.17
2019-05-19T18:50:29.575Z,49.90
2019-05-19T18:52:58.865Z,52.00
2019-05-19T18:55:28.525Z,49.90
2019-05-19T18:57:57.884Z,49.67
2019-05-19T19:00:37.656Z,50.17
2019-05-19T19:03:09.242Z,54.33
2019-05-19T19:05:38.478Z,51.27
2019-05-19T19:08:07.882Z,50.77
2019-05-19T19:10:37.090Z,52.63
2019-05-19T19:13:06.426Z,53.03
2019-05-19T19:15:35.648Z,55.30
2019-05-19T19:18:05.902Z,55.13
2019-05-19T19:20:35.714Z,53.80
2019-05-19T19:23:05.088Z,53.60
2019-05-19T19:25:34.301Z,55.03
2019-05-19T19:28:03.585Z,54.90
2019-05-19T19:30:32.908Z,54.73
2019-05-19T19:33:02.116Z,54.07
2019-05-19T19:35:38.655Z,56.57
2019-05-19T19:38:02.409Z,54.47
2019-05-19T19:40:32.156Z,51.93
2019-05-19T19:43:01.834Z,50.07
2019-05-19T19:45:31.165Z,54.30
2019-05-19T19:48:00.469Z,49.87
2019-05-19T19:50:29.782Z,52.10
2019-05-19T19:52:58.969Z,48.98
2019-05-19T19:55:28.453Z,53.25
2019-05-19T19:57:57.792Z,51.20
2019-05-19T20:00:44.727Z,54.55
2019-05-19T20:03:14.291Z,54.33
2019-05-19T20:05:43.584Z,53.48
2019-05-19T20:08:12.926Z,51.80
2019-05-19T20:10:42.277Z,52.97
2019-05-19T20:13:11.717Z,50.53
2019-05-19T20:15:40.880Z,46.23
2019-05-19T20:18:10.196Z,43.03
2019-05-19T20:20:39.584Z,39.85
2019-05-19T20:23:08.878Z,41.95
2019-05-19T20:25:38.192Z,40.50
2019-05-19T20:28:07.516Z,40.17
2019-05-19T20:30:37.056Z,44.27
2019-05-19T20:33:06.358Z,43.90
2019-05-19T20:35:35.692Z,47.10
2019-05-19T20:38:05.192Z,48.10
2019-05-19T20:40:34.551Z,47.90
2019-05-19T20:43:03.830Z,49.85
2019-05-19T20:45:33.344Z,50.25
2019-05-19T20:48:02.590Z,52.47
2019-05-19T20:50:31.769Z,50.13
2019-05-19T20:53:01.063Z,48.20
2019-05-19T20:55:30.311Z,48.83
2019-05-19T20:57:59.641Z,45.73
2019-05-19T21:00:29.313Z,46.73
2019-05-19T21:02:58.617Z,49.57
2019-05-19T21:05:27.941Z,46.60
2019-05-19T21:07:57.217Z,50.63
2019-05-19T21:10:26.639Z,46.30
2019-05-19T21:12:57.576Z,47.50
2019-05-19T21:15:26.702Z,48.90
2019-05-19T21:17:55.953Z,46.70
2019-05-19T21:20:25.149Z,47.87
2019-05-19T21:22:54.472Z,46.13
2019-05-19T21:25:23.911Z,46.03
2019-05-19T21:27:53.270Z,46.15
2019-05-19T21:30:22.576Z,46.35
2019-05-19T21:32:51.897Z,48.00
2019-05-19T21:35:21.069Z,45.87
2019-05-19T21:37:50.277Z,46.53
2019-05-19T21:40:19.605Z,45.25
2019-05-19T21:42:48.865Z,44.03
2019-05-19T21:45:18.079Z,41.07
2019-05-19T21:47:47.389Z,40.78
2019-05-19T21:50:17.091Z,39.27
2019-05-19T21:52:46.381Z,39.92
2019-05-19T21:55:15.608Z,39.13
2019-05-19T21:57:44.870Z,40.40
2019-05-19T22:00:14.927Z,40.83
2019-05-19T22:02:44.049Z,39.73
2019-05-19T22:05:13.260Z,39.40
2019-05-19T22:08:04.099Z,41.70
2019-05-19T22:10:33.439Z,41.53
2019-05-19T22:13:02.695Z,40.25
2019-05-19T22:15:32.077Z,41.92
2019-05-19T22:18:01.346Z,43.20
2019-05-19T22:20:30.661Z,46.10
2019-05-19T22:22:59.889Z,42.30
2019-05-19T22:25:29.217Z,42.65
2019-05-19T22:27:58.386Z,42.27
2019-05-19T22:30:27.604Z,44.23
2019-05-19T22:32:56.928Z,42.10
2019-05-19T22:35:26.102Z,42.93
2019-05-19T22:37:55.406Z,43.63
2019-05-19T22:40:24.588Z,44.45
2019-05-19T22:42:53.828Z,41.33
2019-05-19T22:45:23.192Z,42.62
2019-05-19T22:47:52.378Z,42.57
2019-05-19T22:50:21.717Z,39.38
2019-05-19T22:52:50.889Z,41.70
2019-05-19T22:55:20.086Z,41.83
2019-05-19T22:57:49.308Z,40.40
2019-05-19T23:00:20.546Z,41.73
2019-05-19T23:02:49.857Z,38.08
2019-05-19T23:05:19.358Z,38.60
2019-05-19T23:07:48.568Z,39.63
2019-05-19T23:10:18.273Z,37.43
2019-05-19T23:12:47.453Z,40.45
2019-05-19T23:15:17.272Z,39.92
2019-05-19T23:17:46.496Z,39.78
2019-05-19T23:20:16.261Z,36.90
2019-05-19T23:22:45.589Z,39.78
2019-05-19T23:25:15.706Z,37.17
2019-05-19T23:27:45.006Z,37.45
2019-05-19T23:30:14.415Z,36.80
2019-05-19T23:32:43.797Z,39.23
2019-05-19T23:35:13.305Z,38.67
2019-05-19T23:37:42.600Z,39.18
2019-05-19T23:40:12.330Z,38.40
2019-05-19T23:42:41.610Z,38.50
2019-05-19T23:45:10.873Z,37.63
2019-05-19T23:47:40.106Z,37.80
2019-05-19T23:50:10.137Z,38.48
2019-05-19T23:52:39.457Z,38.40
2019-05-19T23:55:08.724Z,35.38
2019-05-19T23:57:38.045Z,38.67
